createdAt,value
2019-01-05T00:01:15.924Z,33.43
2019-01-05T00:03:54.199Z,36.70
2019-01-05T00:06:41.794Z,26.73
2019-01-05T00:09:37.354Z,30.83
2019-01-05T00:12:24.934Z,39.20
2019-01-05T00:15:12.884Z,31.93
2019-01-05T00:18:12.584Z,27.97
2019-01-05T00:21:09.363Z,27.77
2019-01-05T00:24:11.154Z,27.20
2019-01-05T00:27:11.669Z,25.53
2019-01-05T00:30:00.759Z,24.77
2019-01-05T00:33:02.097Z,22.10
2019-01-05T00:36:07.794Z,25.40
2019-01-05T00:39:07.793Z,25.30
2019-01-05T00:41:58.454Z,25.73
2019-01-05T00:44:46.456Z,25.90
2019-01-05T00:47:34.379Z,31.77
2019-01-05T00:50:22.790Z,27.87
2019-01-05T00:53:10.369Z,28.83
2019-01-05T00:55:59.871Z,26.23
2019-01-05T00:58:48.194Z,30.20
2019-01-05T01:01:46.669Z,26.90
2019-01-05T01:04:48.083Z,31.37
2019-01-05T01:07:35.779Z,22.47
2019-01-05T01:10:23.759Z,31.37
2019-01-05T01:13:31.479Z,29.10
2019-01-05T01:16:32.759Z,25.77
2019-01-05T01:19:20.769Z,27.23
2019-01-05T01:22:08.759Z,29.60
2019-01-05T01:25:04.089Z,29.03
2019-01-05T01:27:52.612Z,32.57
2019-01-05T01:30:40.949Z,35.47
2019-01-05T01:33:30.554Z,28.80
2019-01-05T01:36:12.083Z,28.33
2019-01-05T01:39:36.068Z,25.93
2019-01-05T01:42:32.638Z,24.57
2019-01-05T01:45:40.479Z,27.30
2019-01-05T01:48:23.659Z,30.00
2019-01-05T01:51:26.578Z,24.00
2019-01-05T01:54:24.729Z,28.83
2019-01-05T01:57:15.588Z,26.97
2019-01-05T02:00:29.106Z,29.90
2019-01-05T02:03:17.934Z,28.10
2019-01-05T02:06:14.789Z,28.83
2019-01-05T02:09:13.129Z,30.77
2019-01-05T02:12:06.729Z,27.63
2019-01-05T02:15:16.974Z,26.10
2019-01-05T02:18:24.179Z,27.47
2019-01-05T02:21:32.164Z,26.77
2019-01-05T02:25:00.010Z,27.73
2019-01-05T02:28:24.154Z,27.47
2019-01-05T02:32:03.511Z,23.27
2019-01-05T02:35:30.214Z,25.23
2019-01-05T02:38:56.224Z,25.80
2019-01-05T02:42:53.749Z,26.20
2019-01-05T02:46:26.374Z,25.97
2019-01-05T02:50:01.089Z,25.10
2019-01-05T02:53:18.509Z,30.20
2019-01-05T02:57:05.596Z,33.53
2019-01-05T03:00:40.034Z,29.43
2019-01-05T03:04:15.119Z,26.13
2019-01-05T03:07:33.161Z,29.23
2019-01-05T03:11:02.087Z,27.67
2019-01-05T03:14:33.130Z,24.87
2019-01-05T03:18:15.809Z,28.23
2019-01-05T03:21:48.482Z,31.43
2019-01-05T03:25:20.044Z,34.63
2019-01-05T03:29:00.674Z,27.03
2019-01-05T03:32:36.453Z,27.13
2019-01-05T03:36:08.929Z,31.47
2019-01-05T03:39:31.793Z,31.27
2019-01-05T03:42:33.470Z,30.73
2019-01-05T03:46:41.873Z,30.73
2019-01-05T03:50:05.129Z,32.60
2019-01-05T03:53:46.228Z,30.80
2019-01-05T03:57:01.583Z,29.40
2019-01-05T04:00:34.872Z,27.47
2019-01-05T04:04:18.080Z,34.80
2019-01-05T04:07:36.732Z,33.73
2019-01-05T04:11:26.329Z,36.10
2019-01-05T04:14:50.264Z,38.97
2019-01-05T04:18:17.865Z,31.73
2019-01-05T04:21:51.850Z,34.47
2019-01-05T04:25:33.659Z,30.77
2019-01-05T04:29:05.018Z,29.73
2019-01-05T04:32:22.913Z,30.47
2019-01-05T04:35:47.698Z,34.77
2019-01-05T04:39:13.745Z,33.67
2019-01-05T04:42:44.234Z,33.50
2019-01-05T04:46:00.624Z,33.50
2019-01-05T04:49:13.189Z,30.87
2019-01-05T04:52:31.494Z,34.37
2019-01-05T04:56:13.345Z,31.53
2019-01-05T04:59:31.909Z,35.63
2019-01-05T05:02:53.038Z,32.37
2019-01-05T05:06:52.246Z,37.67
2019-01-05T05:10:39.434Z,32.00
2019-01-05T05:13:47.297Z,28.83
2019-01-05T05:17:19.890Z,32.80
2019-01-05T05:21:05.119Z,34.47
2019-01-05T05:24:33.799Z,30.67
2019-01-05T05:28:00.539Z,33.37
2019-01-05T05:31:51.073Z,29.57
2019-01-05T05:35:21.210Z,25.97
2019-01-05T05:39:08.481Z,27.97
2019-01-05T05:42:54.808Z,30.43
2019-01-05T05:46:22.479Z,27.03
2019-01-05T05:49:34.557Z,28.20
2019-01-05T05:53:07.974Z,28.67
2019-01-05T05:56:36.705Z,25.13
2019-01-05T06:00:01.864Z,25.77
2019-01-05T06:03:23.204Z,31.30
2019-01-05T06:06:55.803Z,28.40
2019-01-05T06:10:26.659Z,25.47
2019-01-05T06:13:51.839Z,24.97
2019-01-05T06:17:33.164Z,29.97
2019-01-05T06:21:13.924Z,27.90
2019-01-05T06:24:35.003Z,27.37
2019-01-05T06:27:53.889Z,26.97
2019-01-05T06:31:44.614Z,23.03
2019-01-05T06:35:10.874Z,29.07
2019-01-05T06:39:08.264Z,26.93
2019-01-05T06:42:38.443Z,27.97
2019-01-05T06:46:37.739Z,26.17
2019-01-05T06:50:19.874Z,30.73
2019-01-05T06:54:08.944Z,26.97
2019-01-05T06:57:51.889Z,25.83
2019-01-05T07:01:14.289Z,28.53
2019-01-05T07:04:54.814Z,29.03
2019-01-05T07:08:42.774Z,25.77
2019-01-05T07:12:27.399Z,26.77
2019-01-05T07:16:14.163Z,28.37
2019-01-05T07:19:42.074Z,30.57
2019-01-05T07:23:21.117Z,32.77
2019-01-05T07:26:47.569Z,26.10
2019-01-05T07:30:27.639Z,19.50
2019-01-05T07:33:56.520Z,26.53
2019-01-05T07:37:24.494Z,29.50
2019-01-05T07:41:07.494Z,26.73
2019-01-05T07:44:39.699Z,22.30
2019-01-05T07:48:02.284Z,24.87
2019-01-05T07:51:34.873Z,25.87
2019-01-05T07:55:17.993Z,19.80
2019-01-05T07:58:31.214Z,26.13
2019-01-05T08:02:05.735Z,27.20
2019-01-05T08:05:26.204Z,26.43
2019-01-05T08:08:51.588Z,26.90
2019-01-05T08:12:14.728Z,29.27
2019-01-05T08:15:56.236Z,29.13
2019-01-05T08:19:38.435Z,29.47
2019-01-05T08:23:26.329Z,26.83
2019-01-05T08:27:17.954Z,25.20
2019-01-05T08:31:17.174Z,28.17
2019-01-05T08:34:53.019Z,30.27
2019-01-05T08:38:31.990Z,24.93
2019-01-05T08:41:58.974Z,27.43
2019-01-05T08:45:40.879Z,28.90
2019-01-05T08:49:17.039Z,26.90
2019-01-05T08:52:48.014Z,32.23
2019-01-05T08:56:41.094Z,31.00
2019-01-05T09:00:06.989Z,26.80
2019-01-05T09:03:45.984Z,34.40
2019-01-05T09:07:20.894Z,28.60
2019-01-05T09:10:56.909Z,27.00
2019-01-05T09:14:36.634Z,27.07
2019-01-05T09:18:23.763Z,28.60
2019-01-05T09:22:07.019Z,28.33
2019-01-05T09:25:33.189Z,30.50
2019-01-05T09:29:20.834Z,30.50
2019-01-05T09:33:03.505Z,32.47
2019-01-05T09:37:02.329Z,34.60
2019-01-05T09:40:26.776Z,30.00
2019-01-05T09:43:55.014Z,32.27
2019-01-05T09:47:47.495Z,32.57
2019-01-05T09:51:15.709Z,33.33
2019-01-05T09:54:38.375Z,33.07
2019-01-05T09:58:02.615Z,33.00
2019-01-05T10:01:29.020Z,30.40
2019-01-05T10:05:00.399Z,33.80
2019-01-05T10:08:32.654Z,33.53
2019-01-05T10:11:56.369Z,35.00
2019-01-05T10:15:37.519Z,32.33
2019-01-05T10:19:28.134Z,32.17
2019-01-05T10:23:23.290Z,31.30
2019-01-05T10:26:46.590Z,29.63
2019-01-05T10:30:17.599Z,35.33
2019-01-05T10:33:43.400Z,30.60
2019-01-05T10:37:20.374Z,27.80
2019-01-05T10:40:39.154Z,31.30
2019-01-05T10:44:12.364Z,31.97
2019-01-05T10:47:37.279Z,27.37
2019-01-05T10:51:26.451Z,26.47
2019-01-05T10:55:21.519Z,29.13
2019-01-05T10:58:52.539Z,31.43
2019-01-05T11:02:37.219Z,30.63
2019-01-05T11:06:10.160Z,31.60
2019-01-05T11:09:32.954Z,33.83
2019-01-05T11:13:21.475Z,36.60
2019-01-05T11:17:01.471Z,30.53
2019-01-05T11:20:25.454Z,34.47
2019-01-05T11:23:43.619Z,26.10
2019-01-05T11:27:03.583Z,30.97
2019-01-05T11:30:16.804Z,30.17
2019-01-05T11:34:13.325Z,28.30
2019-01-05T11:37:33.729Z,30.40
2019-01-05T11:41:25.839Z,39.03
2019-01-05T11:44:56.002Z,32.23
2019-01-05T11:48:33.380Z,29.33
2019-01-05T11:51:51.381Z,29.47
2019-01-05T11:55:08.459Z,30.93
2019-01-05T11:58:49.095Z,31.50
2019-01-05T12:02:31.159Z,28.70
2019-01-05T12:06:07.455Z,31.23
2019-01-05T12:09:57.025Z,28.57
2019-01-05T12:13:13.394Z,30.00
2019-01-05T12:17:04.080Z,31.40
2019-01-05T12:21:06.794Z,31.37
2019-01-05T12:24:38.069Z,28.70
2019-01-05T12:28:34.229Z,30.53
2019-01-05T12:32:25.224Z,29.70
2019-01-05T12:36:08.625Z,33.13
2019-01-05T12:39:43.484Z,29.33
2019-01-05T12:43:36.635Z,32.28
2019-01-05T12:47:17.344Z,31.67
2019-01-05T12:50:51.160Z,31.67
2019-01-05T12:54:27.539Z,31.17
2019-01-05T12:57:55.319Z,33.57
2019-01-05T13:01:30.374Z,33.27
2019-01-05T13:05:10.100Z,31.03
2019-01-05T13:09:00.600Z,35.07
2019-01-05T13:12:48.269Z,32.07
2019-01-05T13:16:25.619Z,30.13
2019-01-05T13:20:02.784Z,26.07
2019-01-05T13:23:23.274Z,27.03
2019-01-05T13:26:44.893Z,28.83
2019-01-05T13:30:25.509Z,29.43
2019-01-05T13:34:04.144Z,24.53
2019-01-05T13:37:43.509Z,26.03
2019-01-05T13:40:57.629Z,25.60
2019-01-05T13:44:45.604Z,29.77
2019-01-05T13:48:21.010Z,27.43
2019-01-05T13:51:51.619Z,26.10
2019-01-05T13:54:34.839Z,27.40
2019-01-05T13:57:29.729Z,27.47
2019-01-05T14:00:25.585Z,29.33
2019-01-05T14:03:22.390Z,25.97
2019-01-05T14:06:15.254Z,29.20
2019-01-05T14:09:04.289Z,28.27
2019-01-05T14:11:53.179Z,29.77
2019-01-05T14:14:55.534Z,28.70
2019-01-05T14:17:48.384Z,30.67
2019-01-05T14:20:38.631Z,31.47
2019-01-05T14:23:43.639Z,27.23
2019-01-05T14:26:48.754Z,27.83
2019-01-05T14:29:38.900Z,24.90
2019-01-05T14:32:26.659Z,27.47
2019-01-05T14:35:15.598Z,30.30
2019-01-05T14:38:07.919Z,29.87
2019-01-05T14:40:59.519Z,28.43
2019-01-05T14:43:47.345Z,27.53
2019-01-05T14:46:36.939Z,25.00
2019-01-05T14:49:45.331Z,25.57
2019-01-05T14:52:49.769Z,26.17
2019-01-05T14:55:42.334Z,27.10
2019-01-05T14:58:32.034Z,25.73
2019-01-05T15:01:23.879Z,26.77
2019-01-05T15:04:18.672Z,24.07
2019-01-05T15:07:12.554Z,22.87
2019-01-05T15:10:08.219Z,21.43
2019-01-05T15:12:55.954Z,22.27
2019-01-05T15:15:45.469Z,21.23
2019-01-05T15:18:43.924Z,22.63
2019-01-05T15:21:37.594Z,24.73
2019-01-05T15:24:36.673Z,23.17
2019-01-05T15:27:44.304Z,22.40
2019-01-05T15:30:33.944Z,20.90
2019-01-05T15:33:26.324Z,25.33
2019-01-05T15:36:20.879Z,22.13
2019-01-05T15:39:19.154Z,22.77
2019-01-05T15:42:08.549Z,26.30
2019-01-05T15:44:58.440Z,23.63
2019-01-05T15:47:57.087Z,22.13
2019-01-05T15:50:46.904Z,23.20
2019-01-05T15:53:39.174Z,22.67
2019-01-05T15:56:27.290Z,22.70
2019-01-05T15:59:17.244Z,23.17
2019-01-05T16:02:05.779Z,27.60
2019-01-05T16:04:53.629Z,27.47
2019-01-05T16:07:49.444Z,24.57
2019-01-05T16:10:42.245Z,25.13
2019-01-05T16:13:28.884Z,26.67
2019-01-05T16:16:16.664Z,25.43
2019-01-05T16:19:08.900Z,25.97
2019-01-05T16:21:58.229Z,23.97
2019-01-05T16:24:46.334Z,25.73
2019-01-05T16:27:31.134Z,25.73
2019-01-05T16:30:38.729Z,23.07
2019-01-05T16:33:40.429Z,22.47
2019-01-05T16:36:30.340Z,26.30
2019-01-05T16:39:35.574Z,26.63
2019-01-05T16:42:25.101Z,30.13
2019-01-05T16:45:17.180Z,26.87
2019-01-05T16:48:09.939Z,25.93
2019-01-05T16:51:11.719Z,27.37
2019-01-05T16:53:59.869Z,26.50
2019-01-05T16:56:49.174Z,27.57
2019-01-05T16:59:53.357Z,26.13
2019-01-05T17:02:48.624Z,22.60
2019-01-05T17:05:46.106Z,24.60
2019-01-05T17:08:35.504Z,25.87
2019-01-05T17:11:27.399Z,30.67
2019-01-05T17:14:16.000Z,26.77
2019-01-05T17:17:08.380Z,26.77
2019-01-05T17:20:01.244Z,29.53
2019-01-05T17:22:43.424Z,27.07
2019-01-05T17:25:45.099Z,30.97
2019-01-05T17:28:44.189Z,28.43
2019-01-05T17:31:32.338Z,30.10
2019-01-05T17:34:27.029Z,29.10
2019-01-05T17:37:22.619Z,28.40
2019-01-05T17:40:12.699Z,26.40
2019-01-05T17:43:00.944Z,24.67
2019-01-05T17:45:45.745Z,31.50
2019-01-05T17:48:53.141Z,24.53
2019-01-05T17:51:47.217Z,33.13
2019-01-05T17:54:33.905Z,29.00
2019-01-05T17:57:23.489Z,30.47
2019-01-05T18:00:22.954Z,29.70
2019-01-05T18:03:11.549Z,27.67
2019-01-05T18:06:01.623Z,30.23
2019-01-05T18:08:55.017Z,26.80
2019-01-05T18:11:59.997Z,28.47
2019-01-05T18:14:49.921Z,28.67
2019-01-05T18:17:43.271Z,29.23
2019-01-05T18:20:23.234Z,31.47
2019-01-05T18:23:21.241Z,30.50
2019-01-05T18:26:09.075Z,32.33
2019-01-05T18:29:07.064Z,28.87
2019-01-05T18:31:56.710Z,28.90
2019-01-05T18:34:46.118Z,40.53
2019-01-05T18:37:40.770Z,31.00
2019-01-05T18:40:42.509Z,29.70
2019-01-05T18:43:50.345Z,28.07
2019-01-05T18:46:54.769Z,27.23
2019-01-05T18:49:44.211Z,23.13
2019-01-05T18:52:37.155Z,26.00
2019-01-05T18:55:25.109Z,28.20
2019-01-05T18:58:13.170Z,29.47
2019-01-05T19:01:08.901Z,28.70
2019-01-05T19:04:16.379Z,28.13
2019-01-05T19:07:04.198Z,22.90
2019-01-05T19:09:56.290Z,26.23
2019-01-05T19:12:51.461Z,27.63
2019-01-05T19:15:39.235Z,27.53
2019-01-05T19:18:26.058Z,25.53
2019-01-05T19:21:14.076Z,26.80
2019-01-05T19:24:02.079Z,25.63
2019-01-05T19:27:06.354Z,30.80
2019-01-05T19:29:50.912Z,47.20
2019-01-05T19:32:58.980Z,51.30
2019-01-05T19:35:48.337Z,68.70
2019-01-05T19:38:53.039Z,72.50
2019-01-05T19:41:41.530Z,43.57
2019-01-05T19:44:29.814Z,40.43
2019-01-05T19:47:19.364Z,37.23
2019-01-05T19:50:27.329Z,40.07
2019-01-05T19:53:16.934Z,32.70
2019-01-05T19:56:05.044Z,38.77
2019-01-05T19:59:03.649Z,42.97
2019-01-05T20:01:51.514Z,44.50
2019-01-05T20:04:49.914Z,45.10
2019-01-05T20:07:48.159Z,41.37
2019-01-05T20:10:36.025Z,39.43
2019-01-05T20:13:24.159Z,36.40
2019-01-05T20:16:28.884Z,35.93
2019-01-05T20:19:18.834Z,38.50
2019-01-05T20:22:14.709Z,34.30
2019-01-05T20:24:59.734Z,33.40
2019-01-05T20:28:01.575Z,34.73
2019-01-05T20:30:43.174Z,29.13
2019-01-05T20:33:31.184Z,29.83
2019-01-05T20:36:26.449Z,30.97
2019-01-05T20:39:14.274Z,29.30
2019-01-05T20:42:02.151Z,33.67
2019-01-05T20:44:55.404Z,34.23
2019-01-05T20:47:47.529Z,33.80
2019-01-05T20:50:47.710Z,38.07
2019-01-05T20:53:49.529Z,32.50
2019-01-05T20:56:51.099Z,34.30
2019-01-05T20:59:43.720Z,42.57
2019-01-05T21:02:36.079Z,38.17
2019-01-05T21:05:27.854Z,40.40
2019-01-05T21:08:15.405Z,54.23
2019-01-05T21:11:13.867Z,45.97
2019-01-05T21:14:01.995Z,39.00
2019-01-05T21:16:50.030Z,36.07
2019-01-05T21:19:38.209Z,37.63
2019-01-05T21:22:30.667Z,40.10
2019-01-05T21:25:29.644Z,41.37
2019-01-05T21:28:27.999Z,40.23
2019-01-05T21:31:17.805Z,39.40
2019-01-05T21:34:10.244Z,47.20
2019-01-05T21:37:05.597Z,42.27
2019-01-05T21:40:01.034Z,41.60
2019-01-05T21:43:05.671Z,44.90
2019-01-05T21:45:58.334Z,35.47
2019-01-05T21:48:52.376Z,46.77
2019-01-05T21:51:51.016Z,42.07
2019-01-05T21:54:58.829Z,41.60
2019-01-05T21:57:46.585Z,34.77
2019-01-05T22:00:51.219Z,42.73
2019-01-05T22:03:59.000Z,36.13
2019-01-05T22:06:54.398Z,32.87
2019-01-05T22:09:36.579Z,29.53
2019-01-05T22:12:32.064Z,30.00
2019-01-05T22:15:25.014Z,34.23
2019-01-05T22:18:13.185Z,33.70
2019-01-05T22:20:59.345Z,33.53
2019-01-05T22:23:43.169Z,40.97
2019-01-05T22:26:39.194Z,35.00
2019-01-05T22:29:40.587Z,31.97
2019-01-05T22:32:38.749Z,35.07
2019-01-05T22:35:28.394Z,39.87
2019-01-05T22:38:10.649Z,39.33
2019-01-05T22:41:00.444Z,41.83
2019-01-05T22:44:02.324Z,44.07
2019-01-05T22:46:51.100Z,40.77
2019-01-05T22:49:52.676Z,34.10
2019-01-05T22:52:35.509Z,41.20
2019-01-05T22:55:29.630Z,44.07
2019-01-05T22:58:34.509Z,42.77
2019-01-05T23:01:22.399Z,42.93
2019-01-05T23:04:18.411Z,40.47
2019-01-05T23:07:06.384Z,37.97
2019-01-05T23:10:01.734Z,39.03
2019-01-05T23:12:51.266Z,43.33
2019-01-05T23:15:40.959Z,42.17
2019-01-05T23:18:28.989Z,40.17
2019-01-05T23:21:17.556Z,38.27
2019-01-05T23:24:07.730Z,37.97
2019-01-05T23:27:15.039Z,43.37
2019-01-05T23:30:13.895Z,37.53
2019-01-05T23:33:01.204Z,34.60
2019-01-05T23:35:49.266Z,36.87
2019-01-05T23:38:37.739Z,36.90
2019-01-05T23:41:28.544Z,34.17
2019-01-05T23:44:21.024Z,34.17
2019-01-05T23:47:13.664Z,39.07
2019-01-05T23:50:03.246Z,40.83
2019-01-05T23:52:55.695Z,41.10
2019-01-05T23:55:48.370Z,39.73
2019-01-05T23:59:01.195Z,41.20
